Shatley Springs, North Carolina
Current Conditions -  °F | °C
As of 10:55 AM on Saturday 20 Dec 2014 (Local Time) from KGEV Reporting Station
Overcast Overcast  
Wind Chill: 34°   Ceiling: 2900
Heat Index: 34°   Visibility: 10mi
Dew Point: 27°   Wind: 3mph
Humidity: 74%   Direction: 170°S
Pressure: 30.16"   Gusts: NA
Location:  36.484°N, 81.3801°W
Report Text: KGEV 201555Z AUTO 17003KT 10SM BKN029 BKN039 OVC055 01/M03 A3016 RMK AO2 T00121029
Loading
Personal Weather Stations






























Interactive Weather Map New forecast layout! Learn more

10-Day Weather Forecast

Advertisements
Track Severe Weather on mobile